createdAt,value
2018-07-21T00:00:16.900Z,4.00
2018-07-21T00:02:45.025Z,4.15
2018-07-21T00:05:13.367Z,3.85
2018-07-21T00:07:41.636Z,4.03
2018-07-21T00:10:09.562Z,4.78
2018-07-21T00:12:37.566Z,4.03
2018-07-21T00:15:05.723Z,3.87
2018-07-21T00:17:33.878Z,4.28
2018-07-21T00:20:01.817Z,4.33
2018-07-21T00:22:29.780Z,4.40
2018-07-21T00:24:57.950Z,4.05
2018-07-21T00:27:25.850Z,4.30
2018-07-21T00:29:54.017Z,4.40
2018-07-21T00:32:22.111Z,4.20
2018-07-21T00:34:50.233Z,4.45
2018-07-21T00:37:18.268Z,4.25
2018-07-21T00:39:46.398Z,4.00
2018-07-21T00:42:14.334Z,3.90
2018-07-21T00:44:42.459Z,3.50
2018-07-21T00:47:10.458Z,4.10
2018-07-21T00:49:38.421Z,4.05
2018-07-21T00:52:06.601Z,3.80
2018-07-21T00:54:34.744Z,4.00
2018-07-21T00:57:02.854Z,3.60
2018-07-21T00:59:31.018Z,3.85
2018-07-21T01:01:59.144Z,4.05
2018-07-21T01:04:27.268Z,4.25
2018-07-21T01:06:55.395Z,3.90
2018-07-21T01:09:23.330Z,3.83
2018-07-21T01:11:51.246Z,4.08
2018-07-21T01:14:19.229Z,4.55
2018-07-21T01:16:47.162Z,3.75
2018-07-21T01:19:15.326Z,4.05
2018-07-21T01:21:43.477Z,4.00
2018-07-21T01:24:11.607Z,3.98
2018-07-21T01:26:39.759Z,4.03
2018-07-21T01:29:07.871Z,3.90
2018-07-21T01:31:36.018Z,3.92
2018-07-21T01:34:04.148Z,4.85
2018-07-21T01:36:32.288Z,3.70
2018-07-21T01:39:00.446Z,3.65
2018-07-21T01:41:28.568Z,3.45
2018-07-21T01:43:56.724Z,3.58
2018-07-21T01:46:24.814Z,3.20
2018-07-21T01:48:52.955Z,3.47
2018-07-21T01:51:20.828Z,3.65
2018-07-21T01:53:48.943Z,3.42
2018-07-21T01:56:17.081Z,3.05
2018-07-21T01:58:45.216Z,3.20
2018-07-21T02:01:13.344Z,3.35
2018-07-21T02:03:45.380Z,3.50
2018-07-21T02:06:13.533Z,3.20
2018-07-21T02:08:41.706Z,3.35
2018-07-21T02:11:09.916Z,3.30
2018-07-21T02:13:37.867Z,3.00
2018-07-21T02:16:05.831Z,3.02
2018-07-21T02:18:33.965Z,3.58
2018-07-21T02:21:02.105Z,3.20
2018-07-21T02:23:30.255Z,3.62
2018-07-21T02:25:58.372Z,3.20
2018-07-21T02:28:26.521Z,3.40
2018-07-21T02:30:54.418Z,3.30
2018-07-21T02:33:22.528Z,2.90
2018-07-21T02:35:50.668Z,3.20
2018-07-21T02:38:18.816Z,3.33
2018-07-21T02:40:46.708Z,3.15
2018-07-21T02:43:14.994Z,3.60
2018-07-21T02:45:42.930Z,3.40
2018-07-21T02:48:10.840Z,3.30
2018-07-21T02:50:38.950Z,3.40
2018-07-21T02:53:06.904Z,3.47
2018-07-21T02:55:35.040Z,3.50
2018-07-21T02:58:03.140Z,3.47
2018-07-21T03:00:31.313Z,3.17
2018-07-21T03:02:59.430Z,3.52
2018-07-21T03:05:27.558Z,3.85
2018-07-21T03:07:55.700Z,3.72
2018-07-21T03:10:23.819Z,3.85
2018-07-21T03:12:51.961Z,3.62
2018-07-21T03:15:20.121Z,4.05
2018-07-21T03:17:48.037Z,3.58
2018-07-21T03:20:16.193Z,3.65
2018-07-21T03:22:44.142Z,3.85
2018-07-21T03:25:12.273Z,3.33
2018-07-21T03:27:40.199Z,6.60
2018-07-21T03:30:08.335Z,5.03
2018-07-21T03:32:36.451Z,3.83
2018-07-21T03:35:04.561Z,3.90
2018-07-21T03:37:32.491Z,4.05
2018-07-21T03:40:01.547Z,4.12
2018-07-21T03:42:29.695Z,3.90
2018-07-21T03:44:57.798Z,4.12
2018-07-21T03:47:25.728Z,4.17
2018-07-21T03:49:53.842Z,3.65
2018-07-21T03:52:21.944Z,3.70
2018-07-21T03:54:50.092Z,3.17
2018-07-21T03:57:18.252Z,3.72
2018-07-21T03:59:46.168Z,3.87
2018-07-21T04:02:14.410Z,3.25
2018-07-21T04:04:42.316Z,3.80
2018-07-21T04:07:10.246Z,3.85
2018-07-21T04:09:38.163Z,3.65
2018-07-21T04:12:06.333Z,3.58
2018-07-21T04:14:34.467Z,3.72
2018-07-21T04:17:02.593Z,3.50
2018-07-21T04:19:30.678Z,3.42
2018-07-21T04:21:58.831Z,3.50
2018-07-21T04:24:26.960Z,3.10
2018-07-21T04:26:55.106Z,3.62
2018-07-21T04:29:23.254Z,3.98
2018-07-21T04:31:51.376Z,3.85
2018-07-21T04:34:19.556Z,3.60
2018-07-21T04:36:47.461Z,3.85
2018-07-21T04:39:15.590Z,3.45
2018-07-21T04:41:43.484Z,3.70
2018-07-21T04:44:11.392Z,3.77
2018-07-21T04:46:39.552Z,3.35
2018-07-21T04:49:07.656Z,3.40
2018-07-21T04:51:35.567Z,4.20
2018-07-21T04:54:03.793Z,3.62
2018-07-21T04:56:31.696Z,3.30
2018-07-21T04:58:59.814Z,3.20
2018-07-21T05:01:27.729Z,3.60
2018-07-21T05:03:55.639Z,3.30
2018-07-21T05:06:23.779Z,3.40
2018-07-21T05:08:51.670Z,2.85
2018-07-21T05:11:19.815Z,3.47
2018-07-21T05:13:47.915Z,4.08
2018-07-21T05:16:16.027Z,3.27
2018-07-21T05:18:44.143Z,3.22
2018-07-21T05:21:12.261Z,3.55
2018-07-21T05:23:40.197Z,3.30
2018-07-21T05:26:08.306Z,3.17
2018-07-21T05:28:36.198Z,2.98
2018-07-21T05:31:04.104Z,3.00
2018-07-21T05:33:32.046Z,3.50
2018-07-21T05:35:59.930Z,3.42
2018-07-21T05:38:28.050Z,3.95
2018-07-21T05:40:56.185Z,3.75
2018-07-21T05:43:24.350Z,3.62
2018-07-21T05:45:52.454Z,3.25
2018-07-21T05:48:20.362Z,3.60
2018-07-21T05:50:48.463Z,2.75
2018-07-21T05:53:16.418Z,3.08
2018-07-21T05:55:44.523Z,2.90
2018-07-21T05:58:12.651Z,3.08
2018-07-21T06:00:40.820Z,2.70
2018-07-21T06:03:08.946Z,3.55
2018-07-21T06:05:37.034Z,3.08
2018-07-21T06:08:05.080Z,2.80
2018-07-21T06:10:33.225Z,2.90
2018-07-21T06:13:01.158Z,3.05
2018-07-21T06:15:29.278Z,3.47
2018-07-21T06:17:57.420Z,2.95
2018-07-21T06:20:25.542Z,2.83
2018-07-21T06:22:53.466Z,2.83
2018-07-21T06:25:21.375Z,2.80
2018-07-21T06:27:49.268Z,2.98
2018-07-21T06:30:17.188Z,3.22
2018-07-21T06:32:45.308Z,2.58
2018-07-21T06:35:13.206Z,2.72
2018-07-21T06:37:41.352Z,3.05
2018-07-21T06:40:09.248Z,2.75
2018-07-21T06:42:37.155Z,3.02
2018-07-21T06:45:05.317Z,2.92
2018-07-21T06:47:33.427Z,2.67
2018-07-21T06:50:01.551Z,3.87
2018-07-21T06:52:29.705Z,3.10
2018-07-21T06:54:57.828Z,3.05
2018-07-21T06:57:25.971Z,2.87
2018-07-21T06:59:54.102Z,2.65
2018-07-21T07:02:22.221Z,2.70
2018-07-21T07:04:50.423Z,3.02
2018-07-21T07:07:18.355Z,2.85
2018-07-21T07:09:46.521Z,2.95
2018-07-21T07:12:14.442Z,3.05
2018-07-21T07:14:43.072Z,2.75
2018-07-21T07:17:11.056Z,3.02
2018-07-21T07:19:39.186Z,3.12
2018-07-21T07:22:07.080Z,2.62
2018-07-21T07:24:35.016Z,2.72
2018-07-21T07:27:03.169Z,2.80
2018-07-21T07:29:31.293Z,2.67
2018-07-21T07:31:59.649Z,3.20
2018-07-21T07:34:27.805Z,2.62
2018-07-21T07:36:55.929Z,3.15
2018-07-21T07:39:24.027Z,3.27
2018-07-21T07:41:52.213Z,3.27
2018-07-21T07:44:20.133Z,2.75
2018-07-21T07:46:48.303Z,2.65
2018-07-21T07:49:16.231Z,2.80
2018-07-21T07:51:44.169Z,3.05
2018-07-21T07:54:12.075Z,3.35
2018-07-21T07:56:40.219Z,2.67
2018-07-21T07:59:08.389Z,2.95
2018-07-21T08:01:36.835Z,2.75
2018-07-21T08:04:04.733Z,2.83
2018-07-21T08:06:32.676Z,3.40
2018-07-21T08:09:00.841Z,2.80
2018-07-21T08:11:29.120Z,2.90
2018-07-21T08:13:57.272Z,3.02
2018-07-21T08:16:25.234Z,2.90
2018-07-21T08:18:53.374Z,2.70
2018-07-21T08:21:21.513Z,2.80
2018-07-21T08:23:49.691Z,3.12
2018-07-21T08:26:17.829Z,3.40
2018-07-21T08:28:45.985Z,3.08
2018-07-21T08:31:13.913Z,3.47
2018-07-21T08:33:41.856Z,3.35
2018-07-21T08:36:09.811Z,3.62
2018-07-21T08:38:37.763Z,2.90
2018-07-21T08:41:06.249Z,2.83
2018-07-21T08:43:34.523Z,3.20
2018-07-21T08:46:02.673Z,3.27
2018-07-21T08:48:30.681Z,3.10
2018-07-21T08:50:58.616Z,3.10
2018-07-21T08:53:26.783Z,3.00
2018-07-21T08:55:55.021Z,3.95
2018-07-21T08:58:23.166Z,3.33
2018-07-21T09:00:51.298Z,3.27
2018-07-21T09:03:19.424Z,3.65
2018-07-21T09:05:47.574Z,3.12
2018-07-21T09:08:15.716Z,3.95
2018-07-21T09:10:43.980Z,3.65
2018-07-21T09:13:12.195Z,3.35
2018-07-21T09:15:40.124Z,3.27
2018-07-21T09:18:08.048Z,3.60
2018-07-21T09:20:35.980Z,3.08
2018-07-21T09:23:04.123Z,3.83
2018-07-21T09:25:36.199Z,3.22
2018-07-21T09:28:04.378Z,3.45
2018-07-21T09:30:32.281Z,3.10
2018-07-21T09:33:00.471Z,3.75
2018-07-21T09:35:28.411Z,3.67
2018-07-21T09:37:56.596Z,3.33
2018-07-21T09:40:24.515Z,3.50
2018-07-21T09:42:52.679Z,3.58
2018-07-21T09:45:20.709Z,3.08
2018-07-21T09:47:48.860Z,3.50
2018-07-21T09:50:17.067Z,3.62
2018-07-21T09:52:45.203Z,3.35
2018-07-21T09:55:13.323Z,3.55
2018-07-21T09:57:41.247Z,3.70
2018-07-21T10:00:10.350Z,3.40
2018-07-21T10:02:38.298Z,3.72
2018-07-21T10:05:06.236Z,3.30
2018-07-21T10:07:34.128Z,4.37
2018-07-21T10:10:02.280Z,3.58
2018-07-21T10:12:30.205Z,3.35
2018-07-21T10:14:58.362Z,3.75
2018-07-21T10:17:26.268Z,4.08
2018-07-21T10:19:54.454Z,3.33
2018-07-21T10:22:22.602Z,3.62
2018-07-21T10:24:55.993Z,4.08
2018-07-21T10:27:28.300Z,3.65
2018-07-21T10:29:56.410Z,3.77
2018-07-21T10:32:24.562Z,3.92
2018-07-21T10:34:52.728Z,4.22
2018-07-21T10:37:20.886Z,4.62
2018-07-21T10:39:49.044Z,4.20
2018-07-21T10:42:17.199Z,3.80
2018-07-21T10:44:45.332Z,3.98
2018-07-21T10:47:13.454Z,3.70
2018-07-21T10:49:41.610Z,4.10
2018-07-21T10:52:09.532Z,4.28
2018-07-21T10:54:37.716Z,4.37
2018-07-21T10:57:05.847Z,3.75
2018-07-21T10:59:34.000Z,4.00
2018-07-21T11:02:01.927Z,3.83
2018-07-21T11:04:30.103Z,4.17
2018-07-21T11:06:58.017Z,3.85
2018-07-21T11:09:26.154Z,3.77
2018-07-21T11:11:54.075Z,3.58
2018-07-21T11:14:21.987Z,3.67
2018-07-21T11:16:50.113Z,4.45
2018-07-21T11:19:18.061Z,4.40
2018-07-21T11:21:46.260Z,4.60
2018-07-21T11:24:14.233Z,3.98
2018-07-21T11:26:42.394Z,3.98
2018-07-21T11:29:10.299Z,4.30
2018-07-21T11:31:38.632Z,4.03
2018-07-21T11:34:06.983Z,4.40
2018-07-21T11:36:34.973Z,4.28
2018-07-21T11:39:03.834Z,4.40
2018-07-21T11:41:32.324Z,4.35
2018-07-21T11:44:00.248Z,4.85
2018-07-21T11:46:28.145Z,4.80
2018-07-21T11:48:56.262Z,4.70
2018-07-21T11:51:24.427Z,4.42
2018-07-21T11:53:52.737Z,5.05
2018-07-21T11:56:21.049Z,4.40
2018-07-21T11:58:49.184Z,4.40
2018-07-21T12:01:17.368Z,4.75
2018-07-21T12:03:45.537Z,4.30
2018-07-21T12:06:13.671Z,3.90
2018-07-21T12:08:41.809Z,4.53
2018-07-21T12:11:09.731Z,4.22
2018-07-21T12:13:38.063Z,4.12
2018-07-21T12:16:06.100Z,4.80
2018-07-21T12:18:34.239Z,4.12
2018-07-21T12:21:02.977Z,4.25
2018-07-21T12:23:30.965Z,4.42
2018-07-21T12:25:58.895Z,4.90
2018-07-21T12:28:27.049Z,4.30
2018-07-21T12:30:54.967Z,4.65
2018-07-21T12:33:22.934Z,4.95
2018-07-21T12:35:50.922Z,4.28
2018-07-21T12:38:18.838Z,4.50
2018-07-21T12:40:46.808Z,4.50
2018-07-21T12:43:14.728Z,4.75
2018-07-21T12:45:42.893Z,4.55
2018-07-21T12:48:10.870Z,4.10
2018-07-21T12:50:38.840Z,4.47
2018-07-21T12:53:07.001Z,4.90
2018-07-21T12:55:36.046Z,4.40
2018-07-21T12:58:04.563Z,5.87
2018-07-21T13:00:35.605Z,5.15
2018-07-21T13:03:03.562Z,4.67
2018-07-21T13:05:31.775Z,5.42
2018-07-21T13:07:59.741Z,4.35
2018-07-21T13:10:27.902Z,4.72
2018-07-21T13:12:55.876Z,4.35
2018-07-21T13:15:24.080Z,4.28
2018-07-21T13:17:52.306Z,4.55
2018-07-21T13:20:20.701Z,4.85
2018-07-21T13:22:48.846Z,4.53
2018-07-21T13:25:16.996Z,4.50
2018-07-21T13:27:44.971Z,4.65
2018-07-21T13:30:14.004Z,4.58
2018-07-21T13:32:41.962Z,4.30
2018-07-21T13:35:10.568Z,4.28
2018-07-21T13:37:38.548Z,4.50
2018-07-21T13:40:07.366Z,5.12
2018-07-21T13:42:36.486Z,4.50
2018-07-21T13:45:04.735Z,4.50
2018-07-21T13:47:33.017Z,4.20
2018-07-21T13:50:01.151Z,4.67
2018-07-21T13:52:29.277Z,5.08
2018-07-21T13:54:57.463Z,4.85
2018-07-21T13:57:25.616Z,4.78
2018-07-21T13:59:54.399Z,4.72
2018-07-21T14:02:22.367Z,4.80
2018-07-21T14:04:51.165Z,5.28
2018-07-21T14:07:19.091Z,4.72
2018-07-21T14:09:47.017Z,4.58
2018-07-21T14:12:15.844Z,5.53
2018-07-21T14:14:45.769Z,5.47
2018-07-21T14:17:13.700Z,4.42
2018-07-21T14:19:41.868Z,4.70
2018-07-21T14:22:10.342Z,4.67
2018-07-21T14:24:38.674Z,4.83
2018-07-21T14:27:06.829Z,5.05
2018-07-21T14:29:34.784Z,4.75
2018-07-21T14:32:02.988Z,4.97
2018-07-21T14:34:31.016Z,4.58
2018-07-21T14:36:58.932Z,4.60
2018-07-21T14:39:27.364Z,5.30
2018-07-21T14:41:55.521Z,7.08
2018-07-21T14:44:23.667Z,4.92
2018-07-21T14:46:51.632Z,4.40
2018-07-21T14:49:19.566Z,4.70
2018-07-21T14:51:47.919Z,4.90
2018-07-21T14:54:15.867Z,5.55
2018-07-21T14:56:44.007Z,5.62
2018-07-21T14:59:12.150Z,4.70
2018-07-21T15:01:40.408Z,4.50
2018-07-21T15:04:08.532Z,4.97
2018-07-21T15:06:36.449Z,4.92
2018-07-21T15:09:07.712Z,4.78
2018-07-21T15:11:35.894Z,5.03
2018-07-21T15:14:03.806Z,4.55
2018-07-21T15:16:32.014Z,4.78
2018-07-21T15:19:00.157Z,9.73
2018-07-21T15:21:28.280Z,6.45
2018-07-21T15:23:56.464Z,5.28
2018-07-21T15:26:24.400Z,5.00
2018-07-21T15:28:52.567Z,6.95
2018-07-21T15:31:20.775Z,7.75
2018-07-21T15:33:48.930Z,5.15
2018-07-21T15:36:17.143Z,5.33
2018-07-21T15:38:45.276Z,5.00
2018-07-21T15:41:13.591Z,5.12
2018-07-21T15:43:41.508Z,5.15
2018-07-21T15:46:09.411Z,4.90
2018-07-21T15:48:37.532Z,4.50
2018-07-21T15:51:05.451Z,5.08
2018-07-21T15:53:33.434Z,4.95
2018-07-21T15:56:01.560Z,5.22
2018-07-21T15:58:29.705Z,5.33
2018-07-21T16:00:57.836Z,5.30
2018-07-21T16:03:26.038Z,5.22
2018-07-21T16:05:54.164Z,5.45
2018-07-21T16:08:22.104Z,5.42
2018-07-21T16:10:50.098Z,5.70
2018-07-21T16:13:17.989Z,5.17
2018-07-21T16:15:46.105Z,5.17
2018-07-21T16:18:14.049Z,5.50
2018-07-21T16:20:42.354Z,4.78
2018-07-21T16:23:10.493Z,5.30
2018-07-21T16:25:38.632Z,5.10
2018-07-21T16:28:06.795Z,5.20
2018-07-21T16:30:34.923Z,5.25
2018-07-21T16:33:02.843Z,4.70
2018-07-21T16:35:30.771Z,4.80
2018-07-21T16:37:58.679Z,4.78
2018-07-21T16:40:26.857Z,4.85
2018-07-21T16:42:54.989Z,4.62
2018-07-21T16:45:22.927Z,4.80
2018-07-21T16:47:51.045Z,4.65
2018-07-21T16:50:18.947Z,5.42
2018-07-21T16:52:47.616Z,4.75
2018-07-21T16:55:15.530Z,5.25
2018-07-21T16:57:43.684Z,4.60
2018-07-21T17:00:11.804Z,4.95
2018-07-21T17:02:39.722Z,5.12
2018-07-21T17:05:07.894Z,5.33
2018-07-21T17:07:35.820Z,4.83
2018-07-21T17:10:03.760Z,5.00
2018-07-21T17:12:31.676Z,5.12
2018-07-21T17:14:59.590Z,5.08
2018-07-21T17:17:27.504Z,6.03
2018-07-21T17:19:55.695Z,4.75
2018-07-21T17:22:23.837Z,5.10
2018-07-21T17:24:51.992Z,6.17
2018-07-21T17:27:20.171Z,5.95
2018-07-21T17:29:48.360Z,4.40
2018-07-21T17:32:16.463Z,4.55
2018-07-21T17:34:44.373Z,5.17
2018-07-21T17:37:12.305Z,4.58
2018-07-21T17:39:40.471Z,5.00
2018-07-21T17:42:08.601Z,4.80
2018-07-21T17:44:40.813Z,5.42
2018-07-21T17:47:08.776Z,4.78
2018-07-21T17:49:36.893Z,5.70
2018-07-21T17:52:04.842Z,5.50
2018-07-21T17:54:32.746Z,5.85
2018-07-21T17:57:00.661Z,5.15
2018-07-21T17:59:28.799Z,5.70
2018-07-21T18:01:57.119Z,5.10
2018-07-21T18:04:25.291Z,4.55
2018-07-21T18:06:53.194Z,5.10
2018-07-21T18:09:21.104Z,4.80
2018-07-21T18:11:49.476Z,5.00
2018-07-21T18:14:17.677Z,5.28
2018-07-21T18:16:45.792Z,4.25
2018-07-21T18:19:13.956Z,4.85
2018-07-21T18:21:42.068Z,5.53
2018-07-21T18:24:10.000Z,4.47
2018-07-21T18:26:38.146Z,4.97
2018-07-21T18:29:06.076Z,4.97
2018-07-21T18:31:34.220Z,5.37
2018-07-21T18:34:02.130Z,5.12
2018-07-21T18:36:30.082Z,5.37
2018-07-21T18:38:58.055Z,5.42
2018-07-21T18:41:26.048Z,5.47
2018-07-21T18:43:54.165Z,6.28
2018-07-21T18:46:22.099Z,6.15
2018-07-21T18:48:50.221Z,5.62
2018-07-21T18:51:18.145Z,5.47
2018-07-21T18:53:46.268Z,5.37
2018-07-21T18:56:14.187Z,6.85
2018-07-21T18:58:42.290Z,5.87
2018-07-21T19:01:10.199Z,5.83
2018-07-21T19:03:38.372Z,5.20
2018-07-21T19:06:06.514Z,5.37
2018-07-21T19:08:40.188Z,5.53
2018-07-21T19:11:08.412Z,5.25
2018-07-21T19:13:36.497Z,5.28
2018-07-21T19:16:10.092Z,5.53
2018-07-21T19:18:38.227Z,5.33
2018-07-21T19:21:12.011Z,5.72
2018-07-21T19:23:39.924Z,8.75
2018-07-21T19:26:13.609Z,7.37
2018-07-21T19:28:41.715Z,6.87
2018-07-21T19:31:09.845Z,6.58
2018-07-21T19:33:37.971Z,6.40
2018-07-21T19:36:06.102Z,7.72
2018-07-21T19:38:34.256Z,7.30
2018-07-21T19:41:06.685Z,6.95
2018-07-21T19:43:34.647Z,6.80
2018-07-21T19:46:02.540Z,6.55
2018-07-21T19:48:30.478Z,6.60
2018-07-21T19:50:58.670Z,6.30
2018-07-21T19:53:26.769Z,6.60
2018-07-21T19:55:54.944Z,6.50
2018-07-21T19:58:23.203Z,5.70
2018-07-21T20:00:51.428Z,6.08
2018-07-21T20:03:19.351Z,7.20
2018-07-21T20:05:47.798Z,6.17
2018-07-21T20:08:15.957Z,6.58
2018-07-21T20:10:44.106Z,6.58
2018-07-21T20:13:12.282Z,5.83
2018-07-21T20:15:40.474Z,6.00
2018-07-21T20:18:08.387Z,5.85
2018-07-21T20:20:36.325Z,7.53
2018-07-21T20:23:04.408Z,9.60
2018-07-21T20:25:32.332Z,8.55
2018-07-21T20:28:00.787Z,8.23
2018-07-21T20:30:28.823Z,7.70
2018-07-21T20:32:56.703Z,6.92
2018-07-21T20:35:24.903Z,7.55
2018-07-21T20:37:53.084Z,6.58
2018-07-21T20:40:21.022Z,7.15
2018-07-21T20:42:49.298Z,6.65
2018-07-21T20:45:17.250Z,7.12
2018-07-21T20:47:45.336Z,7.05
2018-07-21T20:50:13.944Z,6.83
2018-07-21T20:52:41.905Z,7.30
2018-07-21T20:55:10.116Z,7.05
2018-07-21T20:57:38.288Z,6.50
2018-07-21T21:00:06.398Z,6.97
2018-07-21T21:02:34.495Z,6.70
2018-07-21T21:05:02.437Z,6.72
2018-07-21T21:07:30.567Z,6.10
2018-07-21T21:09:58.518Z,6.22
2018-07-21T21:12:26.742Z,5.90
2018-07-21T21:14:54.924Z,6.83
2018-07-21T21:17:22.829Z,6.80
2018-07-21T21:19:50.991Z,6.10
2018-07-21T21:22:19.172Z,6.53
2018-07-21T21:24:47.235Z,6.80
2018-07-21T21:27:15.352Z,6.75
2018-07-21T21:29:43.519Z,6.22
2018-07-21T21:32:11.635Z,6.72
2018-07-21T21:34:39.871Z,6.25
2018-07-21T21:37:08.042Z,6.50
2018-07-21T21:39:36.168Z,6.08
2018-07-21T21:42:04.094Z,5.37
2018-07-21T21:44:32.240Z,6.05
2018-07-21T21:47:00.162Z,5.97
2018-07-21T21:49:28.324Z,5.90
2018-07-21T21:51:56.225Z,5.25
2018-07-21T21:54:24.181Z,5.65
2018-07-21T21:56:52.336Z,5.80
2018-07-21T21:59:20.484Z,5.62
2018-07-21T22:01:48.653Z,5.25
2018-07-21T22:04:16.615Z,5.72
2018-07-21T22:06:44.712Z,5.47
2018-07-21T22:09:12.892Z,5.00
2018-07-21T22:11:41.044Z,4.90
2018-07-21T22:14:09.025Z,4.85
2018-07-21T22:16:37.109Z,5.62
2018-07-21T22:19:05.090Z,5.28
2018-07-21T22:21:33.038Z,4.92
2018-07-21T22:24:01.195Z,5.08
2018-07-21T22:26:29.249Z,5.42
2018-07-21T22:28:57.441Z,4.97
2018-07-21T22:31:25.372Z,4.70
2018-07-21T22:33:53.480Z,5.08
2018-07-21T22:36:21.700Z,5.60
2018-07-21T22:38:49.864Z,5.12
2018-07-21T22:41:18.005Z,5.12
2018-07-21T22:43:45.942Z,5.33
2018-07-21T22:46:13.856Z,5.70
2018-07-21T22:48:42.034Z,5.33
2018-07-21T22:51:09.957Z,5.42
2018-07-21T22:53:37.876Z,5.10
2018-07-21T22:56:06.059Z,5.40
2018-07-21T22:58:34.210Z,5.15
2018-07-21T23:01:02.263Z,5.25
2018-07-21T23:03:30.401Z,5.35
2018-07-21T23:05:58.620Z,5.15
2018-07-21T23:08:26.611Z,5.15
2018-07-21T23:10:54.732Z,4.90
2018-07-21T23:13:22.865Z,5.10
2018-07-21T23:15:51.008Z,4.85
2018-07-21T23:18:19.136Z,5.33
2018-07-21T23:20:47.252Z,5.28
2018-07-21T23:23:15.141Z,5.22
2018-07-21T23:25:43.268Z,5.70
2018-07-21T23:28:11.179Z,5.00
2018-07-21T23:30:39.328Z,5.03
2018-07-21T23:33:07.440Z,4.90
2018-07-21T23:35:35.592Z,5.17
2018-07-21T23:38:03.694Z,5.35
2018-07-21T23:40:31.781Z,4.70
2018-07-21T23:42:59.889Z,5.12
2018-07-21T23:45:27.968Z,5.30
2018-07-21T23:47:56.099Z,5.70
2018-07-21T23:50:24.199Z,5.40
2018-07-21T23:52:52.349Z,5.47
2018-07-21T23:55:20.437Z,5.25
2018-07-21T23:57:48.545Z,5.83
